Ashiya Air Base, Japan

10:41 PM JST on August 30, 2014 (GMT +0900)
Akama Station(JR KYUSHU RAILWAY) | Change Station
CLOSE
Current Station
Personal Weather Station
Location: Munakata, FUKUOKA
Elevation: 33 ft
Nearby Weather Stations

Elev 33 ft 33.80 °N, 130.57 °E | Updated 13 seconds ago

Partly Cloudy
Partly Cloudy
72.8 °F
Feels Like 71 °F
N
3.5
Wind Variable Wind from South
Gusts 3.5 mph

Today
High -- | Low -- °F
--% Chance of Precip.
Yesterday
High -- | Low -- °F
Precip. -- in
5:49 AM 6:46 PM
Waxing Crescent, 22% visible
Pressure 29.86 in
Visibility 6.2 miles
Clouds Few 2500 ft
Heat Index 71 °F
Dew Point 69 °F
Humidity 89%
Rainfall 0.00 in
Snow Depth Not available.
UV 0 out of 12
Pollen Not available.
Air Quality Not available.
Flu Activity Not available.
METAR RJFF 301330Z 04003KT 020V080 9999 FEW025 BKN/// 23/20 Q1011 RMK 1CU025 A2988

More Conditions Fewer Conditions

Pressure 29.86 in
Visibility 6.2 miles
Clouds Few 2500 ft
Heat Index 71 °F
Dew Point 69 °F
Humidity 89%
Rainfall 0.00 in
Snow Depth Not available.
UV 0 out of 12
Pollen Not available.
Air Quality Not available.
Flu Activity Not available.
METAR RJFF 301330Z 04003KT 020V080 9999 FEW025 BKN/// 23/20 Q1011 RMK 1CU025 A2988

More Conditions Fewer Conditions

10-Day Weather Forecast

Almanac

Astronomy

Aug. 30, 2014 Rise Set
Actual Time 5:49 AM JST 6:46 PM JST
Civil Twilight 5:23 AM JST 7:12 PM JST
Nautical Twilight 4:53 AM JST 7:42 PM JST
Astronomical Twilight 4:22 AM JST 8:13 PM JST
Moon 9:47 AM JST 9:12 PM JST
Length of Visible Light 13h 48m
Length of Day
12h 57m
Tomorrow will be 2m 0s shorter.
Waxing Crescent, 22% of the Moon is Illuminated
Today
Waxing Crescent
Sep 2
First Quarter
Sep 8
Full
Sep 15
Last Quarter
Sep 24
New

Yesterday's Extremes

Country Highs Country Lows

Community

WunderPhotos

Upload Photos

1,748,510 photos uploaded!

WunderBlogs® & News

By Dr. Jeff Masters
Director of Meteorology, Weather Underground
By Kari Strenfel
Meteorologist, Weather Underground
By Christopher C. Burt
Weather Historian, Weather Underground
August 30, 2014
August 30, 2014
August 30, 2014

Nearby

Snow Depth

Not available.

Earthquake Activity

City Distance Mag. Time & Date
No recent earthquake activity has been reported nearby.
Minimum magnitude displayed is 2.5.

Coastal Water Temperatures

Place Temperature
No Stations Reporting

Nearby Weather Stations